• Join FlightAware (Why Join?)
  • Login
  • US Flag 
04:28AM EDT


 

Airport Tracker/Info


-or-


 

Live Flight TrackerFlight Track Log ✈ N156G ✈ 12-Jun-2013 ✈ KBCE - KVCV

Flight Track Log - Related Links

Times and Time Zones

All times are in EDT time to prevent confusion due to time zone crossing. See the N156G flight status page for this flight to view local times or setup timezone preferences in your user account.

Time Position Orientation Groundspeed Altitude Reporting Facility
EDT Latitude Longitude Course Direction KTS MPH feet Rate Location/Type
11:38AM 37.6556 -112.3856 242° Southwest 140 161 15,300  Level Los Angeles Center
11:39AM 37.6369 -112.4281 241° Southwest 139 160 16,300 1,020 Climbing Los Angeles Center
11:40AM 37.6192 -112.4697 242° Southwest 136 157 17,500 960 Climbing Los Angeles Center
11:41AM 37.6003 -112.5117 240° Southwest 137 158 18,300 960 Climbing Los Angeles Center
11:42AM 37.5792 -112.5539 238° Southwest 140 161 19,500 780 Climbing Los Angeles Center
11:43AM 37.5561 -112.6075 242° Southwest 143 165 20,000 180 Climbing Salt Lake Center
11:44AM 37.5342 -112.6486 236° Southwest 144 166 20,000  Level Salt Lake Center
11:45AM 37.5139 -112.6828 233° Southwest 131 151 20,000  Level Salt Lake Center
11:46AM 37.4986 -112.7211 243° Southwest 123 142 20,000  Level Salt Lake Center
11:47AM 37.4808 -112.7592 240° Southwest 124 143 20,100  Climbing Salt Lake Center
11:48AM 37.4564 -112.8114 239° Southwest 136 157 20,100  Level Salt Lake Center
11:49AM 37.4344 -112.8569 239° Southwest 145 167 20,100 -60 Level Salt Lake Center
11:50AM 37.4144 -112.9008 240° Southwest 146 168 20,000 -60 Descending Salt Lake Center
11:51AM 37.3953 -112.9439 241° Southwest 143 165 20,000  Level Salt Lake Center
11:52AM 37.3758 -112.9875 241° Southwest 142 163 20,000  Level Salt Lake Center
11:53AM 37.3567 -113.0314 241° Southwest 143 165 20,000  Level Los Angeles Center
11:54AM 37.3378 -113.0742 241° Southwest 141 162 20,000  Level Los Angeles Center
11:55AM 37.3208 -113.1161 243° Southwest 136 157 20,000  Level Los Angeles Center
11:56AM 37.3031 -113.1572 241° Southwest 135 155 20,000  Level Los Angeles Center
11:57AM 37.2831 -113.2064 243° Southwest 133 153 20,000  Level Los Angeles Center
11:58AM 37.2667 -113.2469 243° Southwest 131 151 20,100  Climbing Los Angeles Center
11:59AM 37.2506 -113.2892 244° Southwest 133 153 20,000 -60 Descending Los Angeles Center
12:00PM 37.2336 -113.3300 242° Southwest 132 152 20,000  Level Los Angeles Center
12:02PM 37.2128 -113.3800 242° Southwest 133 153 20,000  Level Salt Lake Center
12:03PM 37.1994 -113.4119 242° Southwest 132 152 20,000  Level Los Angeles Center
12:04PM 37.1792 -113.4617 243° Southwest 133 153 20,100  Climbing Los Angeles Center
12:05PM 37.1603 -113.5036 241° Southwest 137 158 20,000 -60 Descending Los Angeles Center
12:06PM 37.1372 -113.5406 232° Southwest 136 157 20,000  Level Los Angeles Center
12:07PM 37.1131 -113.5758 229° Southwest 134 154 20,100  Climbing Los Angeles Center
12:08PM 37.0903 -113.6150 234° Southwest 137 158 20,000 -60 Descending Los Angeles Center
12:09PM 37.0697 -113.6533 236° Southwest 134 154 20,000  Level Los Angeles Center
12:10PM 37.0436 -113.6992 234° Southwest 134 154 20,000  Level Los Angeles Center
12:11PM 37.0242 -113.7389 238° Southwest 134 154 20,000  Level Los Angeles Center
12:12PM 37.0072 -113.7750 240° Southwest 123 142 20,000  Level Los Angeles Center
12:13PM 36.9894 -113.8117 239° Southwest 122 140 20,100  Climbing Los Angeles Center
12:14PM 36.9694 -113.8553 240° Southwest 142 163 20,100 -60 Level Los Angeles Center
12:15PM 36.9464 -113.9033 239° Southwest 145 167 20,000  Descending Los Angeles Center
12:16PM 36.9269 -113.9464 241° Southwest 142 163 20,100  Climbing Los Angeles Center
12:17PM 36.9069 -113.9894 240° Southwest 142 163 20,000 -60 Descending Los Angeles Center
12:18PM 36.8861 -114.0319 239° Southwest 142 163 20,000  Level Los Angeles Center
12:19PM 36.8622 -114.0822 239° Southwest 141 162 20,000  Level Los Angeles Center
12:20PM 36.8425 -114.1231 239° Southwest 138 159 20,000  Level Los Angeles Center
12:21PM 36.8242 -114.1633 240° Southwest 135 155 20,000  Level Los Angeles Center
12:22PM 36.8044 -114.2022 238° Southwest 132 152 20,000  Level Los Angeles Center
12:23PM 36.7853 -114.2431 240° Southwest 136 157 20,000  Level Los Angeles Center
12:24PM 36.7661 -114.2828 239° Southwest 134 154 20,000  Level Los Angeles Center
12:25PM 36.7397 -114.3164 226° Southwest 116 133 20,000  Level Los Angeles Center
12:26PM 36.7056 -114.3197 184° South 120 138 20,100  Climbing Los Angeles Center
12:27PM 36.6733 -114.3353 201° Southwest 122 140 20,100 -60 Level Los Angeles Center
12:28PM 36.6433 -114.3592 213° Southwest 127 146 20,000 -60 Descending Los Angeles Center
12:29PM 36.6144 -114.3883 219° Southwest 131 151 20,000  Level Los Angeles Center
12:31PM 36.5858 -114.4175 219° Southwest 133 153 20,000  Level Los Angeles Center
12:32PM 36.5506 -114.4456 213° Southwest 127 146 20,000  Level Los Angeles Center
12:33PM 36.5197 -114.4675 210° Southwest 126 145 20,100  Climbing Los Angeles Center
12:34PM 36.4889 -114.4914 212° Southwest 129 148 20,000 -60 Descending Los Angeles Center
12:35PM 36.4578 -114.5144 211° Southwest 130 150 20,000  Level Los Angeles Center
12:36PM 36.4269 -114.5375 211° Southwest 128 147 20,000  Level Los Angeles Center
12:37PM 36.3978 -114.5614 213° Southwest 126 145 20,000  Level Los Angeles Center
12:38PM 36.3608 -114.5903 212° Southwest 129 148 20,000  Level Los Angeles Center
12:39PM 36.3306 -114.6119 210° Southwest 127 146 20,100  Climbing Los Angeles Center
12:40PM 36.2997 -114.6356 212° Southwest 128 147 20,000 -60 Descending Los Angeles Center
12:41PM 36.2675 -114.6594 211° Southwest 132 152 20,000  Level Los Angeles Center
12:42PM 36.2356 -114.6836 211° Southwest 134 154 20,000  Level Los Angeles Center
12:43PM 36.2039 -114.7069 211° Southwest 133 153 20,000  Level Los Angeles Center
12:44PM 36.1672 -114.7347 211° Southwest 129 148 20,000  Level Los Angeles Center
12:45PM 36.1367 -114.7586 212° Southwest 128 147 20,000  Level Los Angeles Center
12:46PM 36.1050 -114.7819 211° Southwest 130 150 20,000  Level Los Angeles Center
12:47PM 36.0725 -114.8039 209° Southwest 132 152 20,000  Level Los Angeles Center
12:48PM 36.0422 -114.8267 211° Southwest 128 147 20,000  Level Los Angeles Center
12:49PM 36.0128 -114.8497 212° Southwest 125 144 20,000  Level Los Angeles Center
12:50PM 35.9819 -114.8861 224° Southwest 129 148 20,000  Level Los Angeles Center
12:51PM 35.9547 -114.9211 226° Southwest 136 157 20,000  Level Los Angeles Center
12:52PM 35.9297 -114.9556 228° Southwest 136 157 20,000  Level Los Angeles Center
12:53PM 35.9053 -114.9883 227° Southwest 133 153 20,000  Level Los Angeles Center
12:54PM 35.8803 -115.0219 227° Southwest 132 152 20,000  Level Los Angeles Center
12:55PM 35.8550 -115.0558 227° Southwest 133 153 20,000  Level Los Angeles Center
12:56PM 35.8289 -115.0911 228° Southwest 135 155 20,000  Level Los Angeles Center
12:57PM 35.7975 -115.1333 227° Southwest 137 158 20,000  Level Los Angeles Center
12:58PM 35.7703 -115.1700 228° Southwest 142 163 20,000  Level Los Angeles Center
12:59PM 35.7475 -115.2025 229° Southwest 130 150 20,000  Level Los Angeles Center
01:01PM 35.7239 -115.2353 228° Southwest 127 146 20,000  Level Los Angeles Center
01:02PM 35.6983 -115.2681 226° Southwest 130 150 20,000  Level Los Angeles Center
01:03PM 35.6719 -115.3033 227° Southwest 136 157 20,000  Level Los Angeles Center
01:04PM 35.6403 -115.3453 227° Southwest 138 159 20,000  Level Los Angeles Center
01:05PM 35.6156 -115.3797 229° Southwest 137 158 20,000  Level Los Angeles Center
01:06PM 35.5903 -115.4131 227° Southwest 134 154 20,000  Level Los Angeles Center
01:07PM 35.5631 -115.4494 227° Southwest 137 158 20,000  Level Los Angeles Center
01:08PM 35.5353 -115.4864 227° Southwest 142 163 20,000  Level Los Angeles Center
01:09PM 35.5092 -115.5222 228° Southwest 142 163 20,000  Level Los Angeles Center
01:10PM 35.4797 -115.5628 228° Southwest 138 159 20,000  Level Los Angeles Center
01:11PM 35.4539 -115.5969 227° Southwest 137 158 20,000  Level Los Angeles Center
01:12PM 35.4261 -115.6294 224° Southwest 137 158 20,000  Level Los Angeles Center
01:13PM 35.3992 -115.6644 227° Southwest 139 160 20,000  Level Los Angeles Center
01:14PM 35.3733 -115.6997 228° Southwest 139 160 20,000  Level Los Angeles Center
01:15PM 35.3478 -115.7344 228° Southwest 139 160 20,000  Level Los Angeles Center
01:16PM 35.3222 -115.7700 229° Southwest 139 160 20,000  Level Los Angeles Center
01:17PM 35.2906 -115.8128 228° Southwest 140 161 20,000  Level Los Angeles Center
01:18PM 35.2642 -115.8475 227° Southwest 140 161 20,000  Level Los Angeles Center
01:19PM 35.2378 -115.8819 227° Southwest 140 161 20,000  Level Los Angeles Center
01:20PM 35.2131 -115.9175 230° Southwest 139 160 20,000  Level Los Angeles Center
01:21PM 35.1861 -115.9503 225° Southwest 137 158 20,000  Level Los Angeles Center
01:22PM 35.1542 -115.9919 227° Southwest 139 160 20,000  Level Los Angeles Center
01:23PM 35.1306 -116.0236 228° Southwest 135 155 20,000  Level Los Angeles Center
01:24PM 35.1075 -116.0531 226° Southwest 128 147 20,000  Level Los Angeles Center
01:25PM 35.0856 -116.0833 228° Southwest 124 143 20,000  Level Los Angeles Center
01:26PM 35.0617 -116.1139 226° Southwest 122 140 20,000  Level Los Angeles Center
01:27PM 35.0381 -116.1456 228° Southwest 124 143 20,000  Level Los Angeles Center
01:28PM 35.0092 -116.1839 227° Southwest 126 145 20,000  Level Los Angeles Center
01:30PM 34.9864 -116.2158 229° Southwest 126 145 20,000  Level Los Angeles Center
01:31PM 34.9686 -116.2542 241° Southwest 135 155 20,000  Level Los Angeles Center
01:32PM 34.9578 -116.2975 253° West 136 157 20,000  Level Los Angeles Center
01:33PM 34.9442 -116.3375 247° West 130 150 20,000  Level Los Angeles Center
01:34PM 34.9303 -116.3783 247° West 130 150 20,100 -420 Climbing Los Angeles Center
01:35PM 34.9133 -116.4264 247° West 129 148 19,200 -960 Descending Los Angeles Center
01:36PM 34.8981 -116.4717 248° West 137 158 18,200 -960 Descending Los Angeles Center
01:37PM 34.8833 -116.5158 248° West 141 162 17,300 -840 Descending Los Angeles Center
01:38PM 34.8708 -116.5583 250° West 138 159 16,500 -780 Descending Los Angeles Center
01:39PM 34.8569 -116.5992 247° West 134 154 15,700 -780 Descending Los Angeles Center
01:40PM 34.8425 -116.6386 246° West 131 151 14,900 -840 Descending Los Angeles Center
01:41PM 34.8286 -116.6861 250° West 126 145 14,000 -960 Descending Los Angeles Center
01:42PM 34.8136 -116.7281 246° West 131 151 13,000 -960 Descending Los Angeles Center
01:43PM 34.8000 -116.7733 250° West 139 160 12,100 -900 Descending Los Angeles Center
01:44PM 34.7850 -116.8197 249° West 143 165 11,200 -840 Descending Los Angeles Center
01:45PM 34.7692 -116.8658 247° West 145 167 10,400 -600 Descending Los Angeles Center
01:46PM 34.7533 -116.9106 247° West 146 168 10,000 -240 Descending Los Angeles Center
01:47PM 34.7369 -116.9617 249° West 141 162 10,000  Level Los Angeles Center
01:48PM 34.7222 -117.0069 248° West 140 161 10,000  Level Los Angeles Center
01:49PM 34.7069 -117.0528 248° West 144 166 10,000  Level Los Angeles Center
01:50PM 34.6922 -117.0972 248° West 143 165 10,000  Level Los Angeles Center
01:51PM 34.6772 -117.1439 249° West 145 167 10,000 -600 Level Los Angeles Center
01:52PM 34.7025 -117.2078 296° West 172 198 8,800 -1,200 Descending Los Angeles Center
01:53PM 34.7017 -117.2608 269° West 164 189 7,600 -1,500 Descending Los Angeles Center
01:54PM 34.7053 -117.3081 275° West 151 174 5,800 -1,140 Descending Los Angeles Center
01:56PM 34.6623 -117.3252 198° South  Level FlightAware Approximate
01:56PM 34.6792 -117.3867 198° South 137 158 4,100  Level Los Angeles Center
01:57PM 34.6456 -117.3875 181° South 126 145 3,400 -600 Descending Los Angeles Center
01:59PM 34.6097 -117.3858 178° South 123 142 2,900 -540 Descending Los Angeles Center
02:00PM 34.5975 -117.3830 219° Southwest  Level Estimated